sensor_id;sensor_type;location;lat;lon;timestamp;temperature;humidity
23681;DHT22;62915;50.832;4.462;2023-02-08T00:02:16;2.80;99.90
23681;DHT22;62915;50.832;4.462;2023-02-08T00:04:42;2.80;99.90
23681;DHT22;62915;50.832;4.462;2023-02-08T00:07:08;2.80;99.90
23681;DHT22;62915;50.832;4.462;2023-02-08T00:09:33;2.80;99.90
23681;DHT22;62915;50.832;4.462;2023-02-08T00:11:59;2.70;99.90
23681;DHT22;62915;50.832;4.462;2023-02-08T00:14:25;2.60;99.90
23681;DHT22;62915;50.832;4.462;2023-02-08T00:16:51;2.60;99.90
23681;DHT22;62915;50.832;4.462;2023-02-08T00:19:16;2.60;99.90
23681;DHT22;62915;50.832;4.462;2023-02-08T00:21:42;2.60;99.90
23681;DHT22;62915;50.832;4.462;2023-02-08T00:24:08;2.60;99.90
23681;DHT22;62915;50.832;4.462;2023-02-08T00:26:33;2.60;99.90
23681;DHT22;62915;50.832;4.462;2023-02-08T00:28:59;2.60;99.90
23681;DHT22;62915;50.832;4.462;2023-02-08T00:31:25;2.60;99.90
23681;DHT22;62915;50.832;4.462;2023-02-08T00:33:53;2.40;99.90
23681;DHT22;62915;50.832;4.462;2023-02-08T00:36:19;2.50;99.90
23681;DHT22;62915;50.832;4.462;2023-02-08T00:38:45;2.50;99.90
23681;DHT22;62915;50.832;4.462;2023-02-08T00:41:11;2.50;99.90
23681;DHT22;62915;50.832;4.462;2023-02-08T00:43:36;2.50;99.90
23681;DHT22;62915;50.832;4.462;2023-02-08T00:46:02;2.50;99.90
23681;DHT22;62915;50.832;4.462;2023-02-08T00:48:28;2.40;99.90
23681;DHT22;62915;50.832;4.462;2023-02-08T00:51:00;2.30;99.90
23681;DHT22;62915;50.832;4.462;2023-02-08T00:53:26;2.20;99.90
23681;DHT22;62915;50.832;4.462;2023-02-08T00:55:53;2.20;99.90
23681;DHT22;62915;50.832;4.462;2023-02-08T00:58:20;2.20;99.90
23681;DHT22;62915;50.832;4.462;2023-02-08T01:00:46;2.30;99.90
23681;DHT22;62915;50.832;4.462;2023-02-08T01:03:11;2.30;99.90
23681;DHT22;62915;50.832;4.462;2023-02-08T01:05:37;2.40;99.90
23681;DHT22;62915;50.832;4.462;2023-02-08T01:08:03;2.40;99.90
23681;DHT22;62915;50.832;4.462;2023-02-08T01:10:29;2.50;99.90
23681;DHT22;62915;50.832;4.462;2023-02-08T01:12:56;2.30;99.90
23681;DHT22;62915;50.832;4.462;2023-02-08T01:15:22;2.30;99.90
23681;DHT22;62915;50.832;4.462;2023-02-08T01:17:53;2.30;99.90
23681;DHT22;62915;50.832;4.462;2023-02-08T01:20:19;2.20;99.90
23681;DHT22;62915;50.832;4.462;2023-02-08T01:22:45;2.10;99.90
23681;DHT22;62915;50.832;4.462;2023-02-08T01:25:10;2.20;99.90
23681;DHT22;62915;50.832;4.462;2023-02-08T01:27:36;2.20;99.90
23681;DHT22;62915;50.832;4.462;2023-02-08T01:30:02;2.20;99.90
23681;DHT22;62915;50.832;4.462;2023-02-08T01:32:28;2.10;99.90
23681;DHT22;62915;50.832;4.462;2023-02-08T01:34:54;2.10;99.90
23681;DHT22;62915;50.832;4.462;2023-02-08T01:37:20;2.10;99.90
23681;DHT22;62915;50.832;4.462;2023-02-08T01:39:45;2.00;99.90
23681;DHT22;62915;50.832;4.462;2023-02-08T01:42:13;2.00;99.90
23681;DHT22;62915;50.832;4.462;2023-02-08T01:45:20;2.00;99.90
23681;DHT22;62915;50.832;4.462;2023-02-08T01:48:11;2.10;99.90
23681;DHT22;62915;50.832;4.462;2023-02-08T01:50:50;2.10;99.90
23681;DHT22;62915;50.832;4.462;2023-02-08T01:53:18;2.00;99.90
23681;DHT22;62915;50.832;4.462;2023-02-08T01:55:49;1.90;99.90
23681;DHT22;62915;50.832;4.462;2023-02-08T01:58:17;1.90;99.90
23681;DHT22;62915;50.832;4.462;2023-02-08T02:00:44;2.00;99.90
23681;DHT22;62915;50.832;4.462;2023-02-08T02:03:10;1.90;99.90
23681;DHT22;62915;50.832;4.462;2023-02-08T02:05:44;1.90;99.90
23681;DHT22;62915;50.832;4.462;2023-02-08T02:08:10;1.80;99.90
23681;DHT22;62915;50.832;4.462;2023-02-08T02:10:38;1.80;99.90
23681;DHT22;62915;50.832;4.462;2023-02-08T02:13:25;1.90;99.90
23681;DHT22;62915;50.832;4.462;2023-02-08T02:15:51;1.90;99.90
23681;DHT22;62915;50.832;4.462;2023-02-08T02:18:29;1.90;99.90
23681;DHT22;62915;50.832;4.462;2023-02-08T02:21:30;1.80;99.90
23681;DHT22;62915;50.832;4.462;2023-02-08T02:26:48;1.90;99.90
23681;DHT22;62915;50.832;4.462;2023-02-08T02:32:14;1.80;99.90
23681;DHT22;62915;50.832;4.462;2023-02-08T02:34:51;1.80;99.90
23681;DHT22;62915;50.832;4.462;2023-02-08T02:42:57;1.70;99.90
23681;DHT22;62915;50.832;4.462;2023-02-08T02:46:14;1.80;99.90
23681;DHT22;62915;50.832;4.462;2023-02-08T02:49:44;1.80;99.90
23681;DHT22;62915;50.832;4.462;2023-02-08T02:51:55;1.70;99.90
23681;DHT22;62915;50.832;4.462;2023-02-08T02:54:23;1.70;99.90
23681;DHT22;62915;50.832;4.462;2023-02-08T02:56:55;1.70;99.90
23681;DHT22;62915;50.832;4.462;2023-02-08T02:59:24;1.80;99.90
23681;DHT22;62915;50.832;4.462;2023-02-08T03:01:53;1.80;99.90
23681;DHT22;62915;50.832;4.462;2023-02-08T03:24:24;1.70;99.90
23681;DHT22;62915;50.832;4.462;2023-02-08T03:29:52;1.60;99.90
23681;DHT22;62915;50.832;4.462;2023-02-08T03:35:15;1.70;99.90
23681;DHT22;62915;50.832;4.462;2023-02-08T03:38:00;1.70;99.90
23681;DHT22;62915;50.832;4.462;2023-02-08T03:40:32;1.70;99.90
23681;DHT22;62915;50.832;4.462;2023-02-08T03:43:03;1.80;99.90
23681;DHT22;62915;50.832;4.462;2023-02-08T03:45:37;1.70;99.90
23681;DHT22;62915;50.832;4.462;2023-02-08T03:48:07;1.70;99.90
23681;DHT22;62915;50.832;4.462;2023-02-08T03:50:36;1.70;99.90
23681;DHT22;62915;50.832;4.462;2023-02-08T03:53:03;1.60;99.90
23681;DHT22;62915;50.832;4.462;2023-02-08T03:55:32;1.60;99.90
23681;DHT22;62915;50.832;4.462;2023-02-08T03:58:24;1.50;99.90
23681;DHT22;62915;50.832;4.462;2023-02-08T04:01:28;1.50;99.90
23681;DHT22;62915;50.832;4.462;2023-02-08T04:03:55;1.50;99.90
23681;DHT22;62915;50.832;4.462;2023-02-08T04:06:22;1.50;99.90
23681;DHT22;62915;50.832;4.462;2023-02-08T04:08:48;1.50;99.90
23681;DHT22;62915;50.832;4.462;2023-02-08T04:11:15;1.50;99.90
23681;DHT22;62915;50.832;4.462;2023-02-08T04:13:41;1.40;99.90
23681;DHT22;62915;50.832;4.462;2023-02-08T04:16:09;1.40;99.90
23681;DHT22;62915;50.832;4.462;2023-02-08T04:18:35;1.40;99.90
23681;DHT22;62915;50.832;4.462;2023-02-08T04:21:01;1.40;99.90
23681;DHT22;62915;50.832;4.462;2023-02-08T04:23:27;1.40;99.90
23681;DHT22;62915;50.832;4.462;2023-02-08T04:25:52;1.40;99.90
23681;DHT22;62915;50.832;4.462;2023-02-08T04:28:18;1.40;99.90
23681;DHT22;62915;50.832;4.462;2023-02-08T04:30:44;1.30;99.90
23681;DHT22;62915;50.832;4.462;2023-02-08T04:33:09;1.40;99.90
23681;DHT22;62915;50.832;4.462;2023-02-08T04:35:37;1.30;99.90
23681;DHT22;62915;50.832;4.462;2023-02-08T04:38:03;1.30;99.90
23681;DHT22;62915;50.832;4.462;2023-02-08T04:40:29;1.30;99.90
23681;DHT22;62915;50.832;4.462;2023-02-08T04:42:55;1.40;99.90
23681;DHT22;62915;50.832;4.462;2023-02-08T04:45:21;1.40;99.90
23681;DHT22;62915;50.832;4.462;2023-02-08T04:47:47;1.40;99.90
23681;DHT22;62915;50.832;4.462;2023-02-08T04:50:13;1.30;99.90
23681;DHT22;62915;50.832;4.462;2023-02-08T04:52:38;1.40;99.90
23681;DHT22;62915;50.832;4.462;2023-02-08T04:55:04;1.40;99.90
23681;DHT22;62915;50.832;4.462;2023-02-08T04:57:30;1.50;99.90
23681;DHT22;62915;50.832;4.462;2023-02-08T04:59:56;1.60;99.90
23681;DHT22;62915;50.832;4.462;2023-02-08T05:02:21;1.50;99.90
23681;DHT22;62915;50.832;4.462;2023-02-08T05:04:47;1.50;99.90
23681;DHT22;62915;50.832;4.462;2023-02-08T05:07:13;1.50;99.90
23681;DHT22;62915;50.832;4.462;2023-02-08T05:09:39;1.60;99.90
23681;DHT22;62915;50.832;4.462;2023-02-08T05:12:04;1.60;99.90
23681;DHT22;62915;50.832;4.462;2023-02-08T05:14:30;1.50;99.90
23681;DHT22;62915;50.832;4.462;2023-02-08T05:16:56;1.40;99.90
23681;DHT22;62915;50.832;4.462;2023-02-08T05:19:22;1.40;99.90
23681;DHT22;62915;50.832;4.462;2023-02-08T05:21:47;1.40;99.90
23681;DHT22;62915;50.832;4.462;2023-02-08T05:24:13;1.40;99.90
23681;DHT22;62915;50.832;4.462;2023-02-08T05:26:40;1.40;99.90
23681;DHT22;62915;50.832;4.462;2023-02-08T05:29:05;1.40;99.90
23681;DHT22;62915;50.832;4.462;2023-02-08T05:31:31;1.40;99.90
23681;DHT22;62915;50.832;4.462;2023-02-08T05:33:57;1.40;99.90
23681;DHT22;62915;50.832;4.462;2023-02-08T05:36:23;1.30;99.90
23681;DHT22;62915;50.832;4.462;2023-02-08T05:38:49;1.40;99.90
23681;DHT22;62915;50.832;4.462;2023-02-08T05:41:16;1.40;99.90
23681;DHT22;62915;50.832;4.462;2023-02-08T05:43:44;1.40;99.90
23681;DHT22;62915;50.832;4.462;2023-02-08T05:46:10;1.30;99.90
23681;DHT22;62915;50.832;4.462;2023-02-08T05:48:36;1.30;99.90
23681;DHT22;62915;50.832;4.462;2023-02-08T05:51:02;1.30;99.90
23681;DHT22;62915;50.832;4.462;2023-02-08T05:53:29;1.30;99.90
23681;DHT22;62915;50.832;4.462;2023-02-08T05:55:56;1.20;99.90
23681;DHT22;62915;50.832;4.462;2023-02-08T05:58:23;1.20;99.90
23681;DHT22;62915;50.832;4.462;2023-02-08T06:00:48;1.30;99.90
23681;DHT22;62915;50.832;4.462;2023-02-08T06:03:14;1.30;99.90
23681;DHT22;62915;50.832;4.462;2023-02-08T06:05:40;1.20;99.90
23681;DHT22;62915;50.832;4.462;2023-02-08T06:08:06;1.10;99.90
23681;DHT22;62915;50.832;4.462;2023-02-08T06:10:32;1.10;99.90
23681;DHT22;62915;50.832;4.462;2023-02-08T06:12:58;1.10;99.90
23681;DHT22;62915;50.832;4.462;2023-02-08T06:15:24;1.00;99.90
23681;DHT22;62915;50.832;4.462;2023-02-08T06:17:50;1.00;99.90
23681;DHT22;62915;50.832;4.462;2023-02-08T06:20:16;1.00;99.90
23681;DHT22;62915;50.832;4.462;2023-02-08T06:22:41;1.00;99.90
23681;DHT22;62915;50.832;4.462;2023-02-08T06:25:07;1.00;99.90
23681;DHT22;62915;50.832;4.462;2023-02-08T06:27:33;1.00;99.90
23681;DHT22;62915;50.832;4.462;2023-02-08T06:29:59;0.90;99.90
23681;DHT22;62915;50.832;4.462;2023-02-08T06:32:24;1.00;99.90
23681;DHT22;62915;50.832;4.462;2023-02-08T06:34:50;1.00;99.90
23681;DHT22;62915;50.832;4.462;2023-02-08T06:37:17;0.90;99.90
23681;DHT22;62915;50.832;4.462;2023-02-08T06:39:43;0.90;99.90
23681;DHT22;62915;50.832;4.462;2023-02-08T06:42:09;0.90;99.90
23681;DHT22;62915;50.832;4.462;2023-02-08T06:44:35;0.90;99.90
23681;DHT22;62915;50.832;4.462;2023-02-08T06:47:01;0.90;99.90
23681;DHT22;62915;50.832;4.462;2023-02-08T06:49:28;0.90;99.90
23681;DHT22;62915;50.832;4.462;2023-02-08T06:51:53;1.00;99.90
23681;DHT22;62915;50.832;4.462;2023-02-08T06:54:19;1.00;99.90
23681;DHT22;62915;50.832;4.462;2023-02-08T06:56:45;1.00;99.90
23681;DHT22;62915;50.832;4.462;2023-02-08T06:59:11;1.00;99.90
23681;DHT22;62915;50.832;4.462;2023-02-08T07:01:36;1.00;99.90
23681;DHT22;62915;50.832;4.462;2023-02-08T07:04:02;1.00;99.90
23681;DHT22;62915;50.832;4.462;2023-02-08T07:06:28;1.00;99.90
23681;DHT22;62915;50.832;4.462;2023-02-08T07:08:54;1.10;99.90
23681;DHT22;62915;50.832;4.462;2023-02-08T07:11:20;1.00;99.90
23681;DHT22;62915;50.832;4.462;2023-02-08T07:13:48;1.00;99.90
23681;DHT22;62915;50.832;4.462;2023-02-08T07:16:14;1.00;99.90
23681;DHT22;62915;50.832;4.462;2023-02-08T07:18:40;1.00;99.90
23681;DHT22;62915;50.832;4.462;2023-02-08T07:21:06;1.00;99.90
23681;DHT22;62915;50.832;4.462;2023-02-08T07:23:32;0.90;99.90
23681;DHT22;62915;50.832;4.462;2023-02-08T07:26:05;1.00;99.90
23681;DHT22;62915;50.832;4.462;2023-02-08T07:28:32;0.90;99.90
23681;DHT22;62915;50.832;4.462;2023-02-08T07:30:58;0.90;99.90
23681;DHT22;62915;50.832;4.462;2023-02-08T07:33:24;0.90;99.90
23681;DHT22;62915;50.832;4.462;2023-02-08T07:35:50;1.00;99.90
23681;DHT22;62915;50.832;4.462;2023-02-08T07:38:16;0.90;99.90
23681;DHT22;62915;50.832;4.462;2023-02-08T07:40:43;0.90;99.90
23681;DHT22;62915;50.832;4.462;2023-02-08T07:43:09;0.90;99.90
23681;DHT22;62915;50.832;4.462;2023-02-08T07:45:37;0.90;99.90
23681;DHT22;62915;50.832;4.462;2023-02-08T07:48:02;0.90;99.90
23681;DHT22;62915;50.832;4.462;2023-02-08T07:50:28;1.00;99.90
23681;DHT22;62915;50.832;4.462;2023-02-08T07:52:54;1.00;99.90
23681;DHT22;62915;50.832;4.462;2023-02-08T07:55:19;1.00;99.90
23681;DHT22;62915;50.832;4.462;2023-02-08T07:57:46;1.00;99.90
23681;DHT22;62915;50.832;4.462;2023-02-08T08:00:14;1.00;99.90
23681;DHT22;62915;50.832;4.462;2023-02-08T08:02:40;1.10;99.90
23681;DHT22;62915;50.832;4.462;2023-02-08T08:05:07;1.00;99.90
23681;DHT22;62915;50.832;4.462;2023-02-08T08:07:33;1.10;99.90
23681;DHT22;62915;50.832;4.462;2023-02-08T08:09:58;1.20;99.90
23681;DHT22;62915;50.832;4.462;2023-02-08T08:12:24;1.20;99.90
23681;DHT22;62915;50.832;4.462;2023-02-08T08:14:50;1.30;99.90
23681;DHT22;62915;50.832;4.462;2023-02-08T08:17:16;1.20;99.90
23681;DHT22;62915;50.832;4.462;2023-02-08T08:19:42;1.30;99.90
23681;DHT22;62915;50.832;4.462;2023-02-08T08:22:08;1.30;99.90
23681;DHT22;62915;50.832;4.462;2023-02-08T08:24:34;1.40;99.90
23681;DHT22;62915;50.832;4.462;2023-02-08T08:27:06;1.40;99.90
23681;DHT22;62915;50.832;4.462;2023-02-08T08:29:34;1.50;99.90
23681;DHT22;62915;50.832;4.462;2023-02-08T08:32:00;1.50;99.90
23681;DHT22;62915;50.832;4.462;2023-02-08T08:34:27;1.50;99.90
23681;DHT22;62915;50.832;4.462;2023-02-08T08:36:56;1.60;99.90
23681;DHT22;62915;50.832;4.462;2023-02-08T08:39:22;1.70;99.90
23681;DHT22;62915;50.832;4.462;2023-02-08T08:41:48;1.70;99.90
23681;DHT22;62915;50.832;4.462;2023-02-08T08:44:15;1.80;99.90
23681;DHT22;62915;50.832;4.462;2023-02-08T08:46:41;1.90;99.90
23681;DHT22;62915;50.832;4.462;2023-02-08T08:49:07;2.00;99.90
23681;DHT22;62915;50.832;4.462;2023-02-08T08:51:32;2.10;99.90
23681;DHT22;62915;50.832;4.462;2023-02-08T08:54:03;2.10;99.90
23681;DHT22;62915;50.832;4.462;2023-02-08T08:56:31;2.20;99.90
23681;DHT22;62915;50.832;4.462;2023-02-08T08:58:56;2.30;99.90
23681;DHT22;62915;50.832;4.462;2023-02-08T09:01:22;2.40;99.90
23681;DHT22;62915;50.832;4.462;2023-02-08T09:03:48;2.50;99.90
23681;DHT22;62915;50.832;4.462;2023-02-08T09:06:14;2.60;99.90
23681;DHT22;62915;50.832;4.462;2023-02-08T09:08:40;2.70;99.90
23681;DHT22;62915;50.832;4.462;2023-02-08T09:11:08;2.80;99.90
23681;DHT22;62915;50.832;4.462;2023-02-08T09:13:34;2.90;99.90
23681;DHT22;62915;50.832;4.462;2023-02-08T09:16:05;3.00;99.90
23681;DHT22;62915;50.832;4.462;2023-02-08T09:18:31;3.20;99.90
23681;DHT22;62915;50.832;4.462;2023-02-08T09:20:56;3.40;99.90
23681;DHT22;62915;50.832;4.462;2023-02-08T09:23:22;3.50;99.90
23681;DHT22;62915;50.832;4.462;2023-02-08T09:25:47;3.70;99.90
23681;DHT22;62915;50.832;4.462;2023-02-08T09:28:13;3.90;99.90
23681;DHT22;62915;50.832;4.462;2023-02-08T09:30:39;4.20;99.90
23681;DHT22;62915;50.832;4.462;2023-02-08T09:33:04;4.50;99.90
23681;DHT22;62915;50.832;4.462;2023-02-08T09:35:30;4.80;99.90
23681;DHT22;62915;50.832;4.462;2023-02-08T09:37:56;5.10;99.90
23681;DHT22;62915;50.832;4.462;2023-02-08T09:40:30;5.60;99.90
23681;DHT22;62915;50.832;4.462;2023-02-08T09:43:09;6.40;99.90
23681;DHT22;62915;50.832;4.462;2023-02-08T09:45:59;7.10;99.90
23681;DHT22;62915;50.832;4.462;2023-02-08T09:48:32;7.70;99.90
23681;DHT22;62915;50.832;4.462;2023-02-08T09:51:06;8.30;99.80
23681;DHT22;62915;50.832;4.462;2023-02-08T09:53:36;8.90;95.30
23681;DHT22;62915;50.832;4.462;2023-02-08T09:56:06;9.50;94.80
23681;DHT22;62915;50.832;4.462;2023-02-08T09:58:40;10.00;92.70
23681;DHT22;62915;50.832;4.462;2023-02-08T10:01:15;10.30;91.10
23681;DHT22;62915;50.832;4.462;2023-02-08T10:03:44;10.70;91.10
23681;DHT22;62915;50.832;4.462;2023-02-08T10:06:13;11.10;86.90
23681;DHT22;62915;50.832;4.462;2023-02-08T10:08:41;11.50;82.90
23681;DHT22;62915;50.832;4.462;2023-02-08T10:11:25;11.80;78.20
23681;DHT22;62915;50.832;4.462;2023-02-08T10:20:00;12.30;71.80
23681;DHT22;62915;50.832;4.462;2023-02-08T10:22:53;12.40;70.40
23681;DHT22;62915;50.832;4.462;2023-02-08T10:34:00;13.20;64.40
23681;DHT22;62915;50.832;4.462;2023-02-08T10:36:35;13.40;66.30
23681;DHT22;62915;50.832;4.462;2023-02-08T10:39:15;13.10;66.20
23681;DHT22;62915;50.832;4.462;2023-02-08T10:41:43;13.00;61.60
23681;DHT22;62915;50.832;4.462;2023-02-08T10:44:44;13.50;57.40
23681;DHT22;62915;50.832;4.462;2023-02-08T10:47:14;13.60;59.00
23681;DHT22;62915;50.832;4.462;2023-02-08T10:49:56;13.80;59.20
23681;DHT22;62915;50.832;4.462;2023-02-08T10:52:24;14.00;59.80
23681;DHT22;62915;50.832;4.462;2023-02-08T10:54:50;14.20;54.50
23681;DHT22;62915;50.832;4.462;2023-02-08T10:57:24;14.20;54.20
23681;DHT22;62915;50.832;4.462;2023-02-08T11:00:02;14.10;58.20
23681;DHT22;62915;50.832;4.462;2023-02-08T11:02:34;14.20;58.70
23681;DHT22;62915;50.832;4.462;2023-02-08T11:07:29;14.00;56.60
23681;DHT22;62915;50.832;4.462;2023-02-08T11:15:50;13.50;57.80
23681;DHT22;62915;50.832;4.462;2023-02-08T11:18:21;13.70;55.10
23681;DHT22;62915;50.832;4.462;2023-02-08T11:20:51;13.70;56.40
23681;DHT22;62915;50.832;4.462;2023-02-08T11:23:27;13.40;57.00
23681;DHT22;62915;50.832;4.462;2023-02-08T11:25:54;13.50;54.20
23681;DHT22;62915;50.832;4.462;2023-02-08T11:28:27;13.20;54.60
23681;DHT22;62915;50.832;4.462;2023-02-08T11:30:59;13.30;54.10
23681;DHT22;62915;50.832;4.462;2023-02-08T11:33:26;13.50;53.90
23681;DHT22;62915;50.832;4.462;2023-02-08T11:36:01;13.50;53.20
23681;DHT22;62915;50.832;4.462;2023-02-08T11:38:28;13.40;56.30
23681;DHT22;62915;50.832;4.462;2023-02-08T11:40:56;13.10;56.40
23681;DHT22;62915;50.832;4.462;2023-02-08T11:43:33;12.80;56.40
23681;DHT22;62915;50.832;4.462;2023-02-08T11:46:01;12.60;56.10
23681;DHT22;62915;50.832;4.462;2023-02-08T11:51:01;12.70;54.60
23681;DHT22;62915;50.832;4.462;2023-02-08T11:53:36;12.80;53.60
23681;DHT22;62915;50.832;4.462;2023-02-08T11:58:32;13.00;52.10
23681;DHT22;62915;50.832;4.462;2023-02-08T12:01:02;13.10;53.90
23681;DHT22;62915;50.832;4.462;2023-02-08T12:03:36;12.80;54.30
23681;DHT22;62915;50.832;4.462;2023-02-08T12:17:44;12.30;54.80
23681;DHT22;62915;50.832;4.462;2023-02-08T12:21:17;12.20;55.90
23681;DHT22;62915;50.832;4.462;2023-02-08T12:23:31;11.80;56.70
23681;DHT22;62915;50.832;4.462;2023-02-08T12:29:13;12.00;58.20
23681;DHT22;62915;50.832;4.462;2023-02-08T12:43:31;11.10;60.40
23681;DHT22;62915;50.832;4.462;2023-02-08T12:57:02;10.80;63.00
23681;DHT22;62915;50.832;4.462;2023-02-08T12:59:53;11.00;60.70
23681;DHT22;62915;50.832;4.462;2023-02-08T13:05:23;10.70;63.20
23681;DHT22;62915;50.832;4.462;2023-02-08T13:08:01;10.50;62.90
23681;DHT22;62915;50.832;4.462;2023-02-08T13:10:33;10.70;63.90
23681;DHT22;62915;50.832;4.462;2023-02-08T13:18:16;10.70;62.70
23681;DHT22;62915;50.832;4.462;2023-02-08T13:21:02;10.70;64.50
23681;DHT22;62915;50.832;4.462;2023-02-08T13:23:39;10.90;64.10
23681;DHT22;62915;50.832;4.462;2023-02-08T13:26:10;11.10;61.60
23681;DHT22;62915;50.832;4.462;2023-02-08T13:28:39;11.10;63.40
23681;DHT22;62915;50.832;4.462;2023-02-08T13:31:17;11.10;64.00
23681;DHT22;62915;50.832;4.462;2023-02-08T13:33:56;11.10;63.80
23681;DHT22;62915;50.832;4.462;2023-02-08T13:36:36;10.90;64.50
23681;DHT22;62915;50.832;4.462;2023-02-08T13:39:38;10.80;63.70
23681;DHT22;62915;50.832;4.462;2023-02-08T13:42:07;10.80;64.60
23681;DHT22;62915;50.832;4.462;2023-02-08T13:44:48;11.10;63.80
23681;DHT22;62915;50.832;4.462;2023-02-08T14:08:32;9.90;67.60
23681;DHT22;62915;50.832;4.462;2023-02-08T14:13:51;9.80;70.10
23681;DHT22;62915;50.832;4.462;2023-02-08T14:16:29;10.00;68.20
23681;DHT22;62915;50.832;4.462;2023-02-08T14:19:19;9.90;69.10
23681;DHT22;62915;50.832;4.462;2023-02-08T14:21:47;9.90;70.40
23681;DHT22;62915;50.832;4.462;2023-02-08T14:29:35;9.80;72.30
23681;DHT22;62915;50.832;4.462;2023-02-08T14:32:01;9.90;73.50
23681;DHT22;62915;50.832;4.462;2023-02-08T14:34:32;9.90;74.10
23681;DHT22;62915;50.832;4.462;2023-02-08T14:37:01;9.80;71.90
23681;DHT22;62915;50.832;4.462;2023-02-08T14:39:31;9.70;72.40
23681;DHT22;62915;50.832;4.462;2023-02-08T14:42:03;9.60;73.90
23681;DHT22;62915;50.832;4.462;2023-02-08T14:49:42;9.40;73.70
23681;DHT22;62915;50.832;4.462;2023-02-08T14:52:21;9.30;75.30
23681;DHT22;62915;50.832;4.462;2023-02-08T14:55:12;9.20;76.10
23681;DHT22;62915;50.832;4.462;2023-02-08T14:57:39;9.10;76.20
23681;DHT22;62915;50.832;4.462;2023-02-08T15:00:28;9.00;76.00
23681;DHT22;62915;50.832;4.462;2023-02-08T15:02:55;9.10;76.20
23681;DHT22;62915;50.832;4.462;2023-02-08T15:05:27;9.10;75.80
23681;DHT22;62915;50.832;4.462;2023-02-08T15:08:02;9.00;75.20
23681;DHT22;62915;50.832;4.462;2023-02-08T15:10:28;9.00;77.40
23681;DHT22;62915;50.832;4.462;2023-02-08T15:12:59;9.00;76.40
23681;DHT22;62915;50.832;4.462;2023-02-08T15:15:41;9.10;77.40
23681;DHT22;62915;50.832;4.462;2023-02-08T15:18:26;9.20;76.70
23681;DHT22;62915;50.832;4.462;2023-02-08T15:23:26;9.00;76.00
23681;DHT22;62915;50.832;4.462;2023-02-08T15:26:00;8.80;75.40
23681;DHT22;62915;50.832;4.462;2023-02-08T15:28:28;8.60;76.70
23681;DHT22;62915;50.832;4.462;2023-02-08T15:31:06;8.60;77.90
23681;DHT22;62915;50.832;4.462;2023-02-08T15:33:39;8.70;78.00
23681;DHT22;62915;50.832;4.462;2023-02-08T15:36:15;8.80;77.40
23681;DHT22;62915;50.832;4.462;2023-02-08T15:38:42;8.80;78.40
23681;DHT22;62915;50.832;4.462;2023-02-08T15:41:22;8.70;77.40
23681;DHT22;62915;50.832;4.462;2023-02-08T15:43:48;8.70;77.60
23681;DHT22;62915;50.832;4.462;2023-02-08T15:46:23;8.90;77.10
23681;DHT22;62915;50.832;4.462;2023-02-08T15:48:50;8.80;75.60
23681;DHT22;62915;50.832;4.462;2023-02-08T15:51:17;8.80;75.00
23681;DHT22;62915;50.832;4.462;2023-02-08T15:53:50;8.80;76.90
23681;DHT22;62915;50.832;4.462;2023-02-08T15:56:20;8.70;76.60
23681;DHT22;62915;50.832;4.462;2023-02-08T15:58:52;8.70;75.90
23681;DHT22;62915;50.832;4.462;2023-02-08T16:01:20;8.70;77.20
23681;DHT22;62915;50.832;4.462;2023-02-08T16:03:52;8.70;77.40
23681;DHT22;62915;50.832;4.462;2023-02-08T16:06:23;8.90;79.60
23681;DHT22;62915;50.832;4.462;2023-02-08T16:08:51;8.90;78.40
23681;DHT22;62915;50.832;4.462;2023-02-08T16:11:24;8.90;76.00
23681;DHT22;62915;50.832;4.462;2023-02-08T16:13:52;8.90;75.50
23681;DHT22;62915;50.832;4.462;2023-02-08T16:16:20;8.90;76.50
23681;DHT22;62915;50.832;4.462;2023-02-08T16:19:00;8.90;76.80
23681;DHT22;62915;50.832;4.462;2023-02-08T16:21:36;8.80;77.40
23681;DHT22;62915;50.832;4.462;2023-02-08T16:34:43;8.70;82.50
23681;DHT22;62915;50.832;4.462;2023-02-08T16:37:29;8.70;84.80
23681;DHT22;62915;50.832;4.462;2023-02-08T16:39:58;8.70;86.80
23681;DHT22;62915;50.832;4.462;2023-02-08T16:42:37;8.70;88.00
23681;DHT22;62915;50.832;4.462;2023-02-08T16:45:12;8.60;85.20
23681;DHT22;62915;50.832;4.462;2023-02-08T16:47:55;8.20;87.90
23681;DHT22;62915;50.832;4.462;2023-02-08T16:50:26;8.20;89.40
23681;DHT22;62915;50.832;4.462;2023-02-08T16:53:00;8.10;90.00
23681;DHT22;62915;50.832;4.462;2023-02-08T16:55:28;8.10;90.20
23681;DHT22;62915;50.832;4.462;2023-02-08T16:57:56;8.00;90.80
23681;DHT22;62915;50.832;4.462;2023-02-08T17:00:31;7.90;90.80
23681;DHT22;62915;50.832;4.462;2023-02-08T17:02:57;7.80;91.00
23681;DHT22;62915;50.832;4.462;2023-02-08T17:05:26;7.70;91.60
23681;DHT22;62915;50.832;4.462;2023-02-08T17:07:53;7.70;92.30
23681;DHT22;62915;50.832;4.462;2023-02-08T17:10:37;7.60;92.80
23681;DHT22;62915;50.832;4.462;2023-02-08T17:13:03;7.50;93.50
23681;DHT22;62915;50.832;4.462;2023-02-08T17:15:29;7.40;94.30
23681;DHT22;62915;50.832;4.462;2023-02-08T17:17:55;7.30;95.00
23681;DHT22;62915;50.832;4.462;2023-02-08T17:20:25;7.30;95.10
23681;DHT22;62915;50.832;4.462;2023-02-08T17:22:53;7.20;95.70
23681;DHT22;62915;50.832;4.462;2023-02-08T17:25:19;7.20;96.40
23681;DHT22;62915;50.832;4.462;2023-02-08T17:27:58;7.10;96.80
23681;DHT22;62915;50.832;4.462;2023-02-08T17:30:30;7.10;97.60
23681;DHT22;62915;50.832;4.462;2023-02-08T17:32:56;7.00;97.90
23681;DHT22;62915;50.832;4.462;2023-02-08T17:35:23;6.90;98.20
23681;DHT22;62915;50.832;4.462;2023-02-08T17:37:50;6.80;98.50
23681;DHT22;62915;50.832;4.462;2023-02-08T17:40:18;6.70;98.90
23681;DHT22;62915;50.832;4.462;2023-02-08T17:42:44;6.70;99.30
23681;DHT22;62915;50.832;4.462;2023-02-08T17:45:10;6.60;99.70
23681;DHT22;62915;50.832;4.462;2023-02-08T17:47:36;6.50;99.90
23681;DHT22;62915;50.832;4.462;2023-02-08T17:50:09;6.50;99.90
23681;DHT22;62915;50.832;4.462;2023-02-08T17:52:37;6.40;99.90
23681;DHT22;62915;50.832;4.462;2023-02-08T17:55:04;6.30;99.90
23681;DHT22;62915;50.832;4.462;2023-02-08T17:57:32;6.20;99.90
23681;DHT22;62915;50.832;4.462;2023-02-08T17:59:59;6.20;99.90
23681;DHT22;62915;50.832;4.462;2023-02-08T18:02:25;6.30;99.90
23681;DHT22;62915;50.832;4.462;2023-02-08T18:04:51;6.20;99.90
23681;DHT22;62915;50.832;4.462;2023-02-08T18:07:16;6.20;99.90
23681;DHT22;62915;50.832;4.462;2023-02-08T18:09:42;6.20;99.90
23681;DHT22;62915;50.832;4.462;2023-02-08T18:12:08;6.20;99.90
23681;DHT22;62915;50.832;4.462;2023-02-08T18:14:35;6.20;99.90
23681;DHT22;62915;50.832;4.462;2023-02-08T18:17:02;6.10;99.90
23681;DHT22;62915;50.832;4.462;2023-02-08T18:19:28;6.10;99.90
23681;DHT22;62915;50.832;4.462;2023-02-08T18:21:55;6.10;99.90
23681;DHT22;62915;50.832;4.462;2023-02-08T18:24:21;6.00;99.90
23681;DHT22;62915;50.832;4.462;2023-02-08T18:26:47;5.90;99.90
23681;DHT22;62915;50.832;4.462;2023-02-08T18:29:13;5.90;99.90
23681;DHT22;62915;50.832;4.462;2023-02-08T18:31:38;5.80;99.90
23681;DHT22;62915;50.832;4.462;2023-02-08T18:34:05;5.70;99.90
23681;DHT22;62915;50.832;4.462;2023-02-08T18:36:30;5.70;99.90
23681;DHT22;62915;50.832;4.462;2023-02-08T18:38:56;5.70;99.90